createdAt,value
2019-03-01T00:03:36.471Z,101299.91
2019-03-01T00:09:37.965Z,101303.03
2019-03-01T00:15:27.520Z,101298.19
2019-03-01T00:20:54.347Z,101289.27
2019-03-01T00:26:29.922Z,101293.95
2019-03-01T00:31:44.082Z,101293.20
2019-03-01T00:37:35.819Z,101290.92
2019-03-01T00:43:31.732Z,101287.69
2019-03-01T00:48:33.608Z,101286.69
2019-03-01T00:53:35.171Z,101294.09
2019-03-01T00:58:36.804Z,101290.27
2019-03-01T01:03:38.782Z,101281.13
2019-03-01T01:08:40.357Z,101275.23
2019-03-01T01:13:42.141Z,101281.33
2019-03-01T01:18:43.724Z,101278.41
2019-03-01T01:23:45.293Z,101278.51
2019-03-01T01:28:47.257Z,101278.25
2019-03-01T01:33:48.822Z,101280.98
2019-03-01T01:38:50.408Z,101270.19
2019-03-01T01:43:51.984Z,101266.19
2019-03-01T01:48:53.546Z,101261.70
2019-03-01T01:53:55.130Z,101276.27
2019-03-01T01:58:57.092Z,101263.11
2019-03-01T02:03:58.632Z,101264.42
2019-03-01T02:09:00.211Z,101268.20
2019-03-01T02:14:01.850Z,101269.20
2019-03-01T02:19:03.399Z,101273.18
2019-03-01T02:24:04.970Z,101265.27
2019-03-01T02:29:06.514Z,101280.69
2019-03-01T02:34:08.114Z,101283.55
2019-03-01T02:39:09.669Z,101278.22
2019-03-01T02:44:11.327Z,101284.60
2019-03-01T02:49:13.280Z,101278.40
2019-03-01T02:54:15.150Z,101278.30
2019-03-01T02:59:16.707Z,101267.60
2019-03-01T03:04:18.418Z,101265.89
2019-03-01T03:09:19.965Z,101263.68
2019-03-01T03:14:21.974Z,101277.27
2019-03-01T03:19:23.512Z,101265.80
2019-03-01T03:24:25.089Z,101265.62
2019-03-01T03:29:27.073Z,101266.12
2019-03-01T03:34:28.622Z,101271.02
2019-03-01T03:39:30.257Z,101272.88
2019-03-01T03:44:31.815Z,101270.20
2019-03-01T03:49:33.378Z,101273.45
2019-03-01T03:54:34.929Z,101268.05
2019-03-01T03:59:36.492Z,101268.23
2019-03-01T04:04:38.065Z,101269.36
2019-03-01T04:09:39.660Z,101279.01
2019-03-01T04:14:41.685Z,101281.95
2019-03-01T04:19:43.617Z,101291.69
2019-03-01T04:24:45.254Z,101301.28
2019-03-01T04:29:46.874Z,101295.97
2019-03-01T04:34:48.492Z,101296.64
2019-03-01T04:39:50.061Z,101292.42
2019-03-01T04:44:51.592Z,101292.42
2019-03-01T04:49:53.136Z,101300.16
2019-03-01T04:54:54.649Z,101298.27
2019-03-01T04:59:56.237Z,101305.20
2019-03-01T05:04:57.875Z,101310.69
2019-03-01T05:09:59.393Z,101310.23
2019-03-01T05:15:01.000Z,101311.49
2019-03-01T05:20:02.588Z,101324.59
2019-03-01T05:25:04.255Z,101332.80
2019-03-01T05:30:06.882Z,101336.09
2019-03-01T05:35:08.419Z,101339.11
2019-03-01T05:40:10.725Z,101340.23
2019-03-01T05:45:14.876Z,101334.44
2019-03-01T05:50:17.572Z,101341.69
2019-03-01T05:55:19.102Z,101341.87
2019-03-01T06:00:20.741Z,101341.63
2019-03-01T06:05:29.300Z,101347.13
2019-03-01T06:11:19.089Z,101353.27
2019-03-01T06:17:03.928Z,101352.98
2019-03-01T06:22:27.113Z,101367.39
2019-03-01T06:28:28.651Z,101367.97
2019-03-01T06:33:53.016Z,101375.66
2019-03-01T06:39:32.236Z,101389.57
2019-03-01T06:45:18.431Z,101389.83
2019-03-01T06:50:19.965Z,101396.64
2019-03-01T06:55:42.212Z,101406.74
2019-03-01T07:00:50.226Z,101413.46
2019-03-01T07:05:47.294Z,101421.48
2019-03-01T07:10:48.849Z,101426.39
2019-03-01T07:15:50.494Z,101452.50
2019-03-01T07:20:52.096Z,101467.75
2019-03-01T07:25:54.864Z,101474.00
2019-03-01T07:30:56.738Z,101488.41
2019-03-01T07:35:58.344Z,101487.83
2019-03-01T07:40:59.890Z,101499.23
2019-03-01T07:46:01.514Z,101506.81
2019-03-01T07:51:03.106Z,101508.14
2019-03-01T07:56:05.220Z,101524.02
2019-03-01T08:01:07.106Z,101533.27
2019-03-01T08:06:13.136Z,101543.94
2019-03-01T08:11:12.533Z,101555.47
2019-03-01T08:16:16.620Z,101566.18
2019-03-01T08:21:18.189Z,101577.34
2019-03-01T08:26:19.800Z,101584.39
2019-03-01T08:31:22.268Z,101603.30
2019-03-01T08:36:23.987Z,101611.85
2019-03-01T08:41:26.316Z,101621.11
2019-03-01T08:46:28.031Z,101639.89
2019-03-01T08:51:30.506Z,101647.13
2019-03-01T08:56:32.485Z,101659.38
2019-03-01T09:01:34.066Z,101670.92
2019-03-01T09:06:35.720Z,101684.27
2019-03-01T09:11:37.290Z,101697.48
2019-03-01T09:16:40.955Z,101704.83
2019-03-01T09:21:44.632Z,101707.72
2019-03-01T09:26:45.886Z,101711.54
2019-03-01T09:31:47.455Z,101723.31
2019-03-01T09:36:51.529Z,101735.06
2019-03-01T09:42:02.721Z,101748.69
2019-03-01T09:46:58.457Z,101762.65
2019-03-01T09:52:00.225Z,101770.99
2019-03-01T09:57:01.853Z,101775.03
2019-03-01T10:02:03.736Z,101784.05
2019-03-01T10:07:05.724Z,101789.59
2019-03-01T10:12:07.623Z,101802.06
2019-03-01T10:17:09.529Z,101805.62
2019-03-01T10:22:11.834Z,101820.16
2019-03-01T10:27:13.374Z,101829.73
2019-03-01T10:32:15.374Z,101828.34
2019-03-01T10:37:16.938Z,101824.75
2019-03-01T10:42:18.602Z,101825.25
2019-03-01T10:47:20.129Z,101818.72
2019-03-01T10:52:21.736Z,101820.48
2019-03-01T10:57:23.332Z,101824.18
2019-03-01T11:02:24.891Z,101835.70
2019-03-01T11:07:26.527Z,101837.23
2019-03-01T11:12:28.103Z,101843.14
2019-03-01T11:17:29.670Z,101832.77
2019-03-01T11:22:31.232Z,101836.57
2019-03-01T11:27:33.144Z,101843.65
2019-03-01T11:32:34.731Z,101840.38
2019-03-01T11:37:36.309Z,101835.34
2019-03-01T11:42:38.303Z,101844.07
2019-03-01T11:47:39.964Z,101841.09
2019-03-01T11:52:41.600Z,101834.57
2019-03-01T11:57:43.227Z,101834.75
2019-03-01T12:02:45.285Z,101839.96
2019-03-01T12:07:46.849Z,101845.39
2019-03-01T12:12:48.534Z,101836.71
2019-03-01T12:17:50.627Z,101840.38
2019-03-01T12:22:52.176Z,101842.90
2019-03-01T12:27:53.773Z,101849.37
2019-03-01T12:32:55.748Z,101848.45
2019-03-01T12:37:57.661Z,101854.00
2019-03-01T12:42:59.301Z,101877.06
2019-03-01T12:48:00.874Z,101876.33
2019-03-01T12:53:02.800Z,101874.70
2019-03-01T12:58:04.333Z,101876.64
2019-03-01T13:03:09.008Z,101894.08
2019-03-01T13:08:12.533Z,101899.04
2019-03-01T13:13:13.507Z,101898.37
2019-03-01T13:18:16.663Z,101906.47
2019-03-01T13:23:18.567Z,101906.47
2019-03-01T13:28:20.193Z,101910.04
2019-03-01T13:33:21.811Z,101907.73
2019-03-01T13:38:23.435Z,101898.45
2019-03-01T13:43:27.363Z,101909.98
2019-03-01T13:48:28.511Z,101908.80
2019-03-01T13:53:32.906Z,101909.16
2019-03-01T13:58:33.578Z,101915.00
2019-03-01T14:03:35.579Z,101917.25
2019-03-01T14:08:39.723Z,101926.41
2019-03-01T14:13:41.461Z,101935.70
2019-03-01T14:18:43.029Z,101930.70
2019-03-01T14:23:45.012Z,101934.74
2019-03-01T14:28:46.544Z,101932.95
2019-03-01T14:33:48.159Z,101929.42
2019-03-01T14:38:50.169Z,101932.75
2019-03-01T14:43:51.734Z,101946.66
2019-03-01T14:48:53.343Z,101951.67
2019-03-01T14:53:54.943Z,101945.05
2019-03-01T14:59:04.144Z,101947.25
2019-03-01T15:04:06.203Z,101949.47
2019-03-01T15:09:08.191Z,101955.10
2019-03-01T15:14:13.415Z,101956.80
2019-03-01T15:19:13.661Z,101955.60
2019-03-01T15:24:15.710Z,101959.30
2019-03-01T15:29:17.268Z,101955.99
2019-03-01T15:34:20.428Z,101960.42
2019-03-01T15:39:22.395Z,101956.19
2019-03-01T15:44:24.034Z,101963.95
2019-03-01T15:49:25.632Z,101959.02
2019-03-01T15:54:27.765Z,101955.00
2019-03-01T15:59:29.396Z,101966.85
2019-03-01T16:04:33.599Z,101964.25
2019-03-01T16:09:35.621Z,101969.16
2019-03-01T16:14:37.190Z,101978.91
2019-03-01T16:19:38.940Z,101971.77
2019-03-01T16:24:41.659Z,101981.33
2019-03-01T16:29:44.357Z,101981.93
2019-03-01T16:34:45.875Z,101981.63
2019-03-01T16:39:48.231Z,101984.76
2019-03-01T16:44:49.861Z,101988.98
2019-03-01T16:49:51.534Z,101987.54
2019-03-01T16:54:54.766Z,101990.73
2019-03-01T16:59:56.819Z,101978.05
2019-03-01T17:04:59.777Z,101990.61
2019-03-01T17:10:02.781Z,101985.86
2019-03-01T17:15:05.466Z,101987.05
2019-03-01T17:20:08.187Z,101984.83
2019-03-01T17:25:10.103Z,101989.63
2019-03-01T17:30:17.761Z,101986.40
2019-03-01T17:35:19.583Z,101992.23
2019-03-01T17:40:21.172Z,101992.48
2019-03-01T17:45:22.869Z,101996.32
2019-03-01T17:50:24.603Z,101993.32
2019-03-01T17:55:26.202Z,102003.20
2019-03-01T18:00:27.844Z,102005.52
2019-03-01T18:05:29.444Z,102009.16
2019-03-01T18:10:32.062Z,102013.14
2019-03-01T18:15:34.590Z,102010.13
2019-03-01T18:20:37.683Z,102008.39
2019-03-01T18:25:39.751Z,102008.38
2019-03-01T18:30:41.836Z,102004.02
2019-03-01T18:35:43.428Z,102005.50
2019-03-01T18:40:44.999Z,102007.72
2019-03-01T18:45:46.582Z,102010.73
2019-03-01T18:50:48.155Z,102013.69
2019-03-01T18:55:52.914Z,102010.30
2019-03-01T19:00:53.344Z,102007.52
2019-03-01T19:05:54.952Z,102012.09
2019-03-01T19:10:59.719Z,102017.83
2019-03-01T19:16:00.134Z,102011.70
2019-03-01T19:21:02.231Z,102007.38
2019-03-01T19:26:04.002Z,102009.99
2019-03-01T19:31:05.632Z,102011.78
2019-03-01T19:36:07.251Z,102017.58
2019-03-01T19:41:09.712Z,102015.88
2019-03-01T19:46:12.668Z,102015.00
2019-03-01T19:51:14.905Z,102019.62
2019-03-01T19:56:19.014Z,102019.53
2019-03-01T20:01:20.390Z,102015.70
2019-03-01T20:06:22.605Z,102013.26
2019-03-01T20:11:26.746Z,102015.38
2019-03-01T20:16:27.810Z,102016.39
2019-03-01T20:21:30.039Z,102016.00
2019-03-01T20:26:31.613Z,102016.09
2019-03-01T20:31:33.355Z,102013.86
2019-03-01T20:36:35.315Z,102013.47
2019-03-01T20:41:40.150Z,102012.47
2019-03-01T20:46:43.832Z,102023.00
2019-03-01T20:51:44.921Z,102025.17
2019-03-01T20:56:48.018Z,102022.48
2019-03-01T21:01:50.546Z,102011.47
2019-03-01T21:06:52.155Z,102019.70
2019-03-01T21:11:53.778Z,102022.87
2019-03-01T21:16:55.358Z,102016.17
2019-03-01T21:21:57.245Z,102018.00
2019-03-01T21:26:59.296Z,102013.38
2019-03-01T21:32:00.891Z,102011.08
2019-03-01T21:37:03.917Z,102016.91
2019-03-01T21:42:06.618Z,102003.84
2019-03-01T21:47:12.206Z,102004.34
2019-03-01T21:52:11.933Z,102011.91
2019-03-01T21:57:13.598Z,102017.82
2019-03-01T22:02:21.223Z,102016.69
2019-03-01T22:07:22.801Z,102022.56
2019-03-01T22:12:29.535Z,102012.80
2019-03-01T22:17:33.060Z,102015.81
2019-03-01T22:22:37.532Z,102019.02
2019-03-01T22:27:38.508Z,102013.80
2019-03-01T22:32:42.359Z,102016.19
2019-03-01T22:37:44.113Z,102004.77
2019-03-01T22:42:49.560Z,102006.06
2019-03-01T22:47:51.746Z,101994.15
2019-03-01T22:52:53.349Z,101995.64
2019-03-01T22:57:57.838Z,101994.86
2019-03-01T23:02:59.769Z,102000.08
2019-03-01T23:08:01.392Z,101998.61
2019-03-01T23:13:03.011Z,102004.94
2019-03-01T23:18:05.734Z,101995.00
2019-03-01T23:23:08.226Z,101991.18
2019-03-01T23:28:09.798Z,101987.05
2019-03-01T23:33:11.470Z,101985.54
2019-03-01T23:38:14.861Z,101979.45
2019-03-01T23:43:16.523Z,101971.58
2019-03-01T23:48:18.574Z,101976.40
2019-03-01T23:53:20.137Z,101976.80
2019-03-01T23:58:21.681Z,101985.25
